Time;durP1;ratioP1;P1;durP2;ratioP2;P2;SDS_P1;SDS_P2;PMS_P1;PMS_P2;Temp;Humidity;BMP_temperature;BMP_pressure;BME280_temperature;BME280_humidity;BME280_pressure;Samples;Min_cycle;Max_cycle;Signal;HPM_P1;HPM_P2
2024/04/05 00:00:40;;;;;;;;;10.50;10.50;;;;;;;;6491443;39;8954;-55
2024/04/05 00:06:43;;;;;;;;;21.25;18.75;;;;;;;;6491193;46;8876;-57
2024/04/05 00:12:46;;;;;;;;;19.00;15.25;;;;;;;;6491305;46;8872;-56
2024/04/05 00:18:50;;;;;;;;;22.50;19.50;;;;;;;;6491280;39;9039;-57
2024/04/05 00:24:55;;;;;;;;;19.75;18.25;;;;;;;;6491118;39;9029;-57
2024/04/05 00:30:56;;;;;;;;;21.00;20.50;;;;;;;;6490873;39;9102;-56
2024/04/05 00:37:00;;;;;;;;;20.00;16.50;;;;;;;;6491094;39;8880;-56
2024/04/05 00:43:04;;;;;;;;;21.75;18.00;;;;;;;;6494858;36;9491;-57
2024/04/05 00:49:08;;;;;;;;;17.75;17.75;;;;;;;;6492814;39;9036;-57
2024/04/05 00:55:11;;;;;;;;;19.50;18.50;;;;;;;;6495769;31;8853;-54
2024/04/05 01:01:12;;;;;;;;;23.25;20.25;;;;;;;;6494573;46;8941;-56
2024/04/05 01:07:13;;;;;;;;;23.00;23.00;;;;;;;;6494835;46;8931;-58
2024/04/05 01:13:14;;;;;;;;;22.50;19.25;;;;;;;;6495344;39;9001;-56
2024/04/05 01:19:17;;;;;;;;;18.50;17.50;;;;;;;;6495986;31;8893;-56
2024/04/05 01:25:23;;;;;;;;;23.75;20.25;;;;;;;;6495572;39;8992;-57
2024/04/05 01:31:24;;;;;;;;;21.75;18.25;;;;;;;;6495062;31;9119;-56
2024/04/05 01:37:25;;;;;;;;;21.00;21.00;;;;;;;;6494807;31;8885;-54
2024/04/05 01:43:29;;;;;;;;;20.00;19.50;;;;;;;;6494734;46;8893;-57
2024/04/05 01:49:32;;;;;;;;;18.50;18.00;;;;;;;;6495063;39;9060;-57
2024/04/05 01:55:35;;;;;;;;;20.25;20.00;;;;;;;;6495215;39;9028;-57
2024/04/05 02:01:36;;;;;;;;;22.50;22.25;;;;;;;;6493164;39;8912;-56
2024/04/05 02:07:38;;;;;;;;;22.00;19.75;;;;;;;;6491903;46;8929;-56
2024/04/05 02:13:42;;;;;;;;;23.75;23.75;;;;;;;;6492041;31;8885;-58
2024/04/05 02:19:45;;;;;;;;;19.75;19.25;;;;;;;;6491254;46;8889;-55
2024/04/05 02:25:47;;;;;;;;;16.50;16.50;;;;;;;;6492985;39;8917;-57
2024/04/05 02:31:48;;;;;;;;;26.25;21.75;;;;;;;;6491541;39;9055;-56
2024/04/05 02:37:50;;;;;;;;;22.75;21.00;;;;;;;;6491635;39;8928;-57
2024/04/05 02:43:52;;;;;;;;;22.50;22.25;;;;;;;;6492202;31;8971;-57
2024/04/05 02:49:57;;;;;;;;;22.25;21.00;;;;;;;;6491903;39;8921;-56
2024/04/05 02:55:58;;;;;;;;;22.00;22.00;;;;;;;;6492775;31;8901;-56
2024/04/05 03:01:59;;;;;;;;;27.50;21.50;;;;;;;;6492006;39;8967;-57
2024/04/05 03:08:01;;;;;;;;;23.25;21.50;;;;;;;;6492139;39;8916;-57
2024/04/05 03:14:02;;;;;;;;;22.25;21.25;;;;;;;;6509951;31;8864;-56
2024/04/05 03:20:06;;;;;;;;;25.50;23.25;;;;;;;;6490855;46;8876;-56
2024/04/05 03:26:08;;;;;;;;;24.75;23.00;;;;;;;;6492279;39;8991;-56
2024/04/05 03:32:09;;;;;;;;;27.25;23.00;;;;;;;;6492024;39;9170;-58
2024/04/05 03:38:12;;;;;;;;;24.75;24.75;;;;;;;;6492592;31;8963;-56
2024/04/05 03:44:14;;;;;;;;;26.75;25.75;;;;;;;;6492613;31;8888;-57
2024/04/05 03:50:17;;;;;;;;;24.25;24.25;;;;;;;;6491259;46;9047;-54
2024/04/05 03:56:21;;;;;;;;;27.00;24.25;;;;;;;;6490804;39;8976;-56
2024/04/05 04:02:23;;;;;;;;;30.75;28.50;;;;;;;;6473309;39;9082;-59
2024/04/05 04:08:24;;;;;;;;;22.50;20.50;;;;;;;;6492265;31;8879;-58
2024/04/05 04:14:25;;;;;;;;;22.00;22.00;;;;;;;;6491175;46;8918;-59
2024/04/05 04:20:26;;;;;;;;;24.00;23.00;;;;;;;;6493072;46;8974;-58
2024/04/05 04:26:27;;;;;;;;;28.25;23.75;;;;;;;;6492609;31;8975;-59
2024/04/05 04:32:29;;;;;;;;;26.25;22.00;;;;;;;;6491549;31;9129;-58
2024/04/05 04:38:30;;;;;;;;;27.75;25.25;;;;;;;;6490979;39;8933;-61
2024/04/05 04:44:31;;;;;;;;;29.00;29.00;;;;;;;;6490710;39;8916;-58
2024/04/05 04:50:32;;;;;;;;;31.50;29.75;;;;;;;;6491561;47;8975;-58
2024/04/05 04:56:33;;;;;;;;;26.00;23.75;;;;;;;;6490881;39;9082;-59
2024/04/05 05:02:35;;;;;;;;;31.50;29.00;;;;;;;;6491512;47;8972;-59
2024/04/05 05:08:37;;;;;;;;;31.50;28.50;;;;;;;;6490044;39;8922;-59
2024/04/05 05:14:38;;;;;;;;;32.25;29.50;;;;;;;;6490696;31;8898;-60
2024/04/05 05:20:47;;;;;;;;;25.75;25.00;;;;;;;;6491929;39;8914;-58
2024/04/05 05:26:48;;;;;;;;;20.75;19.25;;;;;;;;6491058;39;8940;-59
2024/04/05 05:32:49;;;;;;;;;25.00;25.00;;;;;;;;6491182;31;8889;-60
2024/04/05 05:38:50;;;;;;;;;29.25;25.00;;;;;;;;6494365;31;8862;-59
2024/04/05 05:44:51;;;;;;;;;17.50;15.75;;;;;;;;6492372;46;9017;-59
2024/04/05 05:50:53;;;;;;;;;24.25;21.00;;;;;;;;6493604;46;8885;-60
2024/04/05 05:56:54;;;;;;;;;22.50;19.25;;;;;;;;6492692;46;8989;-59
2024/04/05 06:02:58;;;;;;;;;23.75;21.50;;;;;;;;6493140;39;9067;-59
2024/04/05 06:08:59;;;;;;;;;21.50;21.00;;;;;;;;6493433;39;8914;-59
2024/04/05 06:15:04;;;;;;;;;24.75;24.00;;;;;;;;6493097;39;8884;-60
2024/04/05 06:21:05;;;;;;;;;24.00;19.67;;;;;;;;6494461;31;8850;-58
2024/04/05 06:27:07;;;;;;;;;22.67;21.33;;;;;;;;6492096;31;9552;-61
2024/04/05 06:33:08;;;;;;;;;19.00;18.67;;;;;;;;6489553;46;8946;-60
2024/04/05 06:39:09;;;;;;;;;17.67;16.00;;;;;;;;6491102;46;8941;-57
2024/04/05 06:45:11;;;;;;;;;21.33;18.33;;;;;;;;6491171;46;8994;-59
2024/04/05 06:51:12;;;;;;;;;14.33;14.33;;;;;;;;6493427;31;8977;-60
2024/04/05 06:57:13;;;;;;;;;13.00;13.00;;;;;;;;6491985;46;8876;-59
2024/04/05 07:03:15;;;;;;;;;14.00;14.00;;;;;;;;6490445;46;8949;-59
2024/04/05 07:09:20;;;;;;;;;13.33;12.00;;;;;;;;6491205;39;8960;-60
2024/04/05 07:15:21;;;;;;;;;14.67;12.00;;;;;;;;6489594;39;8902;-60
2024/04/05 07:21:22;;;;;;;;;13.00;12.00;;;;;;;;6491735;39;8916;-60
2024/04/05 07:27:24;;;;;;;;;9.00;9.00;;;;;;;;6490492;39;8903;-61
2024/04/05 07:33:25;;;;;;;;;14.67;14.00;;;;;;;;6489442;46;9124;-58
2024/04/05 07:39:26;;;;;;;;;7.33;7.33;;;;;;;;6488814;39;8922;-60
2024/04/05 07:45:28;;;;;;;;;5.33;5.33;;;;;;;;6487591;31;8901;-59
2024/04/05 07:51:30;;;;;;;;;11.00;8.00;;;;;;;;6488987;39;8858;-58
2024/04/05 07:57:32;;;;;;;;;8.00;8.00;;;;;;;;6490886;39;8941;-59
2024/04/05 08:03:34;;;;;;;;;8.00;6.33;;;;;;;;6490088;39;9066;-59
2024/04/05 08:09:35;;;;;;;;;5.00;4.67;;;;;;;;6490931;39;9014;-59
2024/04/05 08:15:37;;;;;;;;;7.00;7.00;;;;;;;;6490096;46;9005;-59
2024/04/05 08:21:38;;;;;;;;;6.33;5.67;;;;;;;;6489364;39;8879;-60
2024/04/05 08:27:44;;;;;;;;;7.33;6.00;;;;;;;;6493917;39;8998;-60
2024/04/05 08:33:46;;;;;;;;;8.25;8.25;;;;;;;;6491881;46;9004;-59
2024/04/05 08:39:48;;;;;;;;;7.67;7.67;;;;;;;;6490385;31;9057;-59
2024/04/05 08:45:49;;;;;;;;;6.00;5.00;;;;;;;;6490183;46;8940;-60
2024/04/05 08:51:51;;;;;;;;;6.00;5.00;;;;;;;;6489089;47;8961;-61
2024/04/05 08:57:55;;;;;;;;;7.00;4.67;;;;;;;;6489554;39;10040;-60
2024/04/05 09:03:56;;;;;;;;;7.00;7.00;;;;;;;;6488710;39;9039;-60
2024/04/05 09:09:57;;;;;;;;;3.50;3.50;;;;;;;;6490010;31;9147;-60
2024/04/05 09:16:01;;;;;;;;;9.00;9.00;;;;;;;;6489971;46;8945;-60
2024/04/05 09:22:04;;;;;;;;;5.00;5.00;;;;;;;;6489287;31;8985;-60
2024/04/05 09:28:18;;;;;;;;;4.00;4.00;;;;;;;;6489828;39;9694;-60
2024/04/05 09:34:28;;;;;;;;;4.50;4.50;;;;;;;;6489893;39;9096;-59
2024/04/05 09:40:32;;;;;;;;;5.25;5.00;;;;;;;;6489858;39;9572;-58
2024/04/05 09:46:38;;;;;;;;;5.75;5.75;;;;;;;;6491049;31;8934;-59
2024/04/05 09:52:43;;;;;;;;;5.75;5.25;;;;;;;;6490873;39;9064;-61
2024/04/05 09:58:47;;;;;;;;;6.00;5.75;;;;;;;;6491578;39;8892;-60
2024/04/05 10:04:49;;;;;;;;;5.25;4.00;;;;;;;;6488893;46;9049;-60
2024/04/05 10:10:50;;;;;;;;;4.75;4.75;;;;;;;;6489653;31;8969;-60
2024/04/05 10:17:04;;;;;;;;;5.50;5.00;;;;;;;;6490904;39;9599;-60
2024/04/05 10:23:05;;;;;;;;;13.00;13.00;;;;;;;;6489690;39;9172;-57
2024/04/05 10:29:07;;;;;;;;;7.25;5.75;;;;;;;;6490975;39;9038;-60
2024/04/05 10:35:09;;;;;;;;;7.25;7.25;;;;;;;;6491130;39;9658;-61
2024/04/05 10:41:18;;;;;;;;;5.75;5.75;;;;;;;;6488951;39;8917;-61
2024/04/05 10:47:19;;;;;;;;;19.50;19.50;;;;;;;;6490805;46;8919;-60
2024/04/05 10:53:22;;;;;;;;;6.00;6.00;;;;;;;;6490257;46;9013;-60
2024/04/05 10:59:23;;;;;;;;;7.25;7.25;;;;;;;;6490287;31;9085;-60
2024/04/05 11:05:24;;;;;;;;;12.75;12.75;;;;;;;;6489582;46;8946;-60
2024/04/05 11:11:26;;;;;;;;;6.00;4.25;;;;;;;;6489900;39;8929;-59
2024/04/05 11:17:27;;;;;;;;;24.00;24.00;;;;;;;;6490601;39;9518;-60
2024/04/05 11:23:29;;;;;;;;;20.00;19.00;;;;;;;;6490656;39;8904;-59
2024/04/05 11:29:30;;;;;;;;;11.25;11.25;;;;;;;;6490794;31;8870;-58
2024/04/05 11:35:31;;;;;;;;;8.75;8.00;;;;;;;;6486685;46;8995;-60
2024/04/05 11:41:32;;;;;;;;;4.50;4.00;;;;;;;;6487512;46;9059;-64
2024/04/05 11:47:34;;;;;;;;;2.50;2.50;;;;;;;;6486321;46;8913;-59
2024/04/05 11:53:35;;;;;;;;;6.50;5.50;;;;;;;;6487900;39;9021;-59
2024/04/05 11:59:36;;;;;;;;;3.00;3.00;;;;;;;;6506333;31;8981;-60
2024/04/05 12:05:39;;;;;;;;;5.75;5.00;;;;;;;;6485984;31;9079;-59
2024/04/05 12:11:41;;;;;;;;;6.00;6.00;;;;;;;;6485658;39;8973;-61
2024/04/05 12:17:47;;;;;;;;;5.75;4.00;;;;;;;;6487176;46;9026;-59
2024/04/05 12:23:49;;;;;;;;;3.50;3.50;;;;;;;;6487182;31;8943;-60
2024/04/05 12:29:51;;;;;;;;;2.00;2.00;;;;;;;;6487797;39;8968;-59
2024/04/05 12:35:58;;;;;;;;;4.50;3.25;;;;;;;;6488161;31;9058;-58
2024/04/05 12:41:59;;;;;;;;;4.25;4.00;;;;;;;;6487784;39;8924;-60
2024/04/05 12:48:00;;;;;;;;;6.00;6.00;;;;;;;;6487561;39;9584;-60
2024/04/05 12:54:01;;;;;;;;;6.00;6.00;;;;;;;;6488087;31;9083;-59
2024/04/05 13:00:04;;;;;;;;;2.75;2.75;;;;;;;;6486534;47;8931;-59
2024/04/05 13:06:10;;;;;;;;;4.00;4.00;;;;;;;;6487182;31;8968;-59
2024/04/05 13:12:11;;;;;;;;;5.00;5.00;;;;;;;;6485931;39;9072;-60
2024/04/05 13:18:12;;;;;;;;;2.00;2.00;;;;;;;;6487656;39;10302;-59
2024/04/05 13:24:13;;;;;;;;;3.00;3.00;;;;;;;;6487431;47;8970;-59
2024/04/05 13:30:14;;;;;;;;;2.00;2.00;;;;;;;;6484836;47;8976;-57
2024/04/05 13:36:17;;;;;;;;;5.75;5.75;;;;;;;;6486500;39;8967;-57
2024/04/05 13:42:20;;;;;;;;;2.50;2.50;;;;;;;;6486783;31;8928;-59
2024/04/05 13:48:21;;;;;;;;;0.50;0.50;;;;;;;;6308631;36;10000867;-62
2024/04/05 13:54:23;;;;;;;;;2.75;2.50;;;;;;;;6484824;46;8888;-59
2024/04/05 14:00:24;;;;;;;;;3.75;3.75;;;;;;;;6492436;31;8959;-57
2024/04/05 14:06:25;;;;;;;;;3.00;3.00;;;;;;;;6491776;39;9527;-59
2024/04/05 14:12:26;;;;;;;;;2.75;2.00;;;;;;;;6492408;39;8899;-59
2024/04/05 14:18:29;;;;;;;;;4.00;4.00;;;;;;;;6493315;31;8932;-58
2024/04/05 14:24:30;;;;;;;;;5.50;5.50;;;;;;;;6492139;46;8863;-58
2024/04/05 14:30:31;;;;;;;;;4.25;3.50;;;;;;;;6491824;31;8944;-58
2024/04/05 14:36:33;;;;;;;;;3.50;3.00;;;;;;;;6491402;46;9037;-57
2024/04/05 14:42:34;;;;;;;;;5.50;3.50;;;;;;;;6491999;39;8912;-58
2024/04/05 14:48:38;;;;;;;;;3.50;3.50;;;;;;;;6492426;39;8974;-59
2024/04/05 14:54:39;;;;;;;;;3.25;3.25;;;;;;;;6492089;39;8915;-58
2024/04/05 15:00:40;;;;;;;;;2.75;2.00;;;;;;;;6491177;39;9607;-57
2024/04/05 15:06:41;;;;;;;;;4.00;4.00;;;;;;;;6491637;46;8861;-58
2024/04/05 15:12:42;;;;;;;;;5.00;4.25;;;;;;;;6493139;31;8978;-58
2024/04/05 15:18:43;;;;;;;;;2.00;2.00;;;;;;;;6491756;46;8841;-58
2024/04/05 15:24:45;;;;;;;;;3.00;3.00;;;;;;;;6492188;31;8931;-57
2024/04/05 15:30:53;;;;;;;;;3.50;3.50;;;;;;;;6492246;39;8915;-58
2024/04/05 15:36:54;;;;;;;;;2.75;2.75;;;;;;;;6492245;31;9023;-58
2024/04/05 15:42:55;;;;;;;;;3.50;3.50;;;;;;;;6491758;39;8942;-58
2024/04/05 15:48:56;;;;;;;;;4.00;3.00;;;;;;;;6491772;46;8974;-60
2024/04/05 15:54:59;;;;;;;;;2.75;2.75;;;;;;;;6491492;39;8879;-59
2024/04/05 16:01:05;;;;;;;;;5.25;5.25;;;;;;;;6491897;46;9006;-59
2024/04/05 16:07:06;;;;;;;;;7.50;6.25;;;;;;;;6492057;31;8953;-59
2024/04/05 16:13:07;;;;;;;;;7.00;7.00;;;;;;;;6491768;39;8922;-59
2024/04/05 16:19:08;;;;;;;;;8.50;8.00;;;;;;;;6490194;46;8848;-58
2024/04/05 16:25:11;;;;;;;;;6.00;6.00;;;;;;;;6491527;39;9578;-59
2024/04/05 16:31:17;;;;;;;;;13.00;9.67;;;;;;;;6490740;39;8941;-59
2024/04/05 16:37:18;;;;;;;;;7.50;5.50;;;;;;;;6421908;36;5001305;-57
2024/04/05 16:43:20;;;;;;;;;7.00;7.00;;;;;;;;6491271;39;8958;-59
2024/04/05 16:49:22;;;;;;;;;11.00;8.67;;;;;;;;6490733;46;9040;-59
2024/04/05 16:55:23;;;;;;;;;13.00;11.67;;;;;;;;6490741;47;9029;-58
2024/04/05 17:01:24;;;;;;;;;8.33;7.33;;;;;;;;6490488;39;8991;-58
2024/04/05 17:07:34;;;;;;;;;11.33;8.67;;;;;;;;6491871;31;8919;-60
2024/04/05 17:13:51;;;;;;;;;13.00;10.67;;;;;;;;6490478;47;8991;-59
2024/04/05 17:19:52;;;;;;;;;11.33;11.33;;;;;;;;6490905;39;8837;-59
2024/04/05 17:25:57;;;;;;;;;10.00;10.00;;;;;;;;6490965;39;8881;-58
2024/04/05 17:31:58;;;;;;;;;9.00;9.00;;;;;;;;6491070;39;8897;-58
2024/04/05 17:37:59;;;;;;;;;11.67;9.67;;;;;;;;6492565;39;8861;-59
2024/04/05 17:44:04;;;;;;;;;19.67;16.33;;;;;;;;6491305;46;8893;-59
2024/04/05 17:50:07;;;;;;;;;17.00;13.00;;;;;;;;6492766;39;8968;-57
2024/04/05 17:56:09;;;;;;;;;12.67;12.00;;;;;;;;6492879;39;9012;-58
2024/04/05 18:02:11;;;;;;;;;13.00;12.00;;;;;;;;6492257;46;8897;-59
2024/04/05 18:08:12;;;;;;;;;12.33;11.00;;;;;;;;6492525;39;8865;-59
2024/04/05 18:14:13;;;;;;;;;10.67;10.67;;;;;;;;6493082;39;8909;-59
2024/04/05 18:20:14;;;;;;;;;15.33;13.33;;;;;;;;6493332;31;8948;-57
2024/04/05 18:26:15;;;;;;;;;16.33;16.33;;;;;;;;6492559;39;8869;-59
2024/04/05 18:32:16;;;;;;;;;9.67;7.33;;;;;;;;6491968;31;8897;-59
2024/04/05 18:38:17;;;;;;;;;9.67;9.67;;;;;;;;6491849;46;8963;-59
2024/04/05 18:44:20;;;;;;;;;16.00;12.67;;;;;;;;6491665;39;8993;-59
2024/04/05 18:50:22;;;;;;;;;9.33;9.33;;;;;;;;6492123;31;9028;-59
2024/04/05 18:56:23;;;;;;;;;18.00;14.33;;;;;;;;6491988;46;8996;-59
2024/04/05 19:02:24;;;;;;;;;13.00;13.00;;;;;;;;6491683;39;9023;-57
2024/04/05 19:08:28;;;;;;;;;15.00;13.00;;;;;;;;6492398;39;8885;-58
2024/04/05 19:14:31;;;;;;;;;12.33;12.33;;;;;;;;6491875;46;9108;-58
2024/04/05 19:20:32;;;;;;;;;13.00;12.00;;;;;;;;6491798;39;8988;-59
2024/04/05 19:26:33;;;;;;;;;14.67;14.67;;;;;;;;6491418;39;9404;-58
2024/04/05 19:32:35;;;;;;;;;17.67;17.67;;;;;;;;6491214;46;9064;-59
2024/04/05 19:38:36;;;;;;;;;24.67;20.00;;;;;;;;6491731;31;8885;-58
2024/04/05 19:44:38;;;;;;;;;21.00;19.67;;;;;;;;6491337;31;8866;-58
2024/04/05 19:50:39;;;;;;;;;18.67;17.67;;;;;;;;6491823;39;8907;-58
2024/04/05 19:56:42;;;;;;;;;16.33;15.00;;;;;;;;6491499;39;9610;-59
2024/04/05 20:02:44;;;;;;;;;17.67;17.33;;;;;;;;6491442;46;8893;-58
2024/04/05 20:08:45;;;;;;;;;17.67;16.00;;;;;;;;6491804;39;8889;-57
2024/04/05 20:14:47;;;;;;;;;16.67;16.67;;;;;;;;6491782;39;8884;-58
2024/04/05 20:20:49;;;;;;;;;16.00;13.00;;;;;;;;6491489;39;8846;-57
2024/04/05 20:26:51;;;;;;;;;14.67;14.00;;;;;;;;6491491;39;8976;-60
2024/04/05 20:32:54;;;;;;;;;13.00;13.00;;;;;;;;6490433;39;8956;-58
2024/04/05 20:38:55;;;;;;;;;14.33;13.00;;;;;;;;6490097;39;8873;-57
2024/04/05 20:44:56;;;;;;;;;17.67;14.67;;;;;;;;6490766;39;8845;-59
2024/04/05 20:50:57;;;;;;;;;15.00;12.00;;;;;;;;6490452;39;8933;-58
2024/04/05 20:56:58;;;;;;;;;16.00;13.00;;;;;;;;6489723;47;8822;-58
2024/04/05 21:02:58;;;;;;;;;15.00;14.00;;;;;;;;6489810;46;8917;-58
2024/04/05 21:08:59;;;;;;;;;18.00;14.33;;;;;;;;6492311;39;8893;-57
2024/04/05 21:15:00;;;;;;;;;15.33;13.00;;;;;;;;6492124;39;8849;-59
2024/04/05 21:21:01;;;;;;;;;22.67;17.33;;;;;;;;6491947;31;8849;-60
2024/04/05 21:27:03;;;;;;;;;14.33;14.33;;;;;;;;6491389;46;8945;-56
2024/04/05 21:33:04;;;;;;;;;15.33;15.00;;;;;;;;6491312;46;9121;-57
2024/04/05 21:39:06;;;;;;;;;22.00;18.33;;;;;;;;6491644;39;8873;-58
2024/04/05 21:45:08;;;;;;;;;13.33;13.33;;;;;;;;6491808;31;9521;-58
2024/04/05 21:51:10;;;;;;;;;15.67;14.67;;;;;;;;6491989;39;8869;-58
2024/04/05 21:57:12;;;;;;;;;12.00;12.00;;;;;;;;6491472;46;8913;-59
2024/04/05 22:03:13;;;;;;;;;20.67;18.00;;;;;;;;6492214;39;8905;-59
2024/04/05 22:09:16;;;;;;;;;19.00;17.00;;;;;;;;6492295;39;8944;-59
2024/04/05 22:15:17;;;;;;;;;17.00;15.00;;;;;;;;6491224;39;8865;-58
2024/04/05 22:21:19;;;;;;;;;16.33;16.33;;;;;;;;6491596;39;8834;-57
2024/04/05 22:27:20;;;;;;;;;14.67;14.67;;;;;;;;6491067;46;8853;-59
2024/04/05 22:33:21;;;;;;;;;13.67;12.33;;;;;;;;6491577;39;8917;-58
2024/04/05 22:39:23;;;;;;;;;16.33;15.67;;;;;;;;6491430;39;8940;-60
2024/04/05 22:45:24;;;;;;;;;15.00;14.33;;;;;;;;6491195;39;9000;-58
2024/04/05 22:51:25;;;;;;;;;19.67;17.33;;;;;;;;6491308;39;8905;-58
2024/04/05 22:57:25;;;;;;;;;17.33;15.33;;;;;;;;6491093;39;8869;-57
2024/04/05 23:03:26;;;;;;;;;18.67;18.00;;;;;;;;6491371;39;9031;-57
2024/04/05 23:09:28;;;;;;;;;20.00;18.00;;;;;;;;6491197;39;8896;-58
2024/04/05 23:15:29;;;;;;;;;17.00;17.00;;;;;;;;6491540;39;8869;-57
2024/04/05 23:21:29;;;;;;;;;14.00;14.00;;;;;;;;6491075;46;8921;-59
2024/04/05 23:27:30;;;;;;;;;16.00;14.33;;;;;;;;6490411;46;8877;-59
2024/04/05 23:33:31;;;;;;;;;16.33;14.00;;;;;;;;6491083;31;9027;-57
2024/04/05 23:39:32;;;;;;;;;17.33;17.33;;;;;;;;6491547;39;8846;-57
2024/04/05 23:45:33;;;;;;;;;20.00;17.00;;;;;;;;6490608;39;8919;-58
2024/04/05 23:51:35;;;;;;;;;20.33;16.67;;;;;;;;6490213;46;8932;-59
2024/04/05 23:57:38;;;;;;;;;20.00;14.00;;;;;;;;6490495;39;8913;-57
